Terminal Aerodrome Forecast
Issued by NWS Twin Cities, MN

Home | Current Version | Previous Version | Text Only | Print | Product List | Glossary Off
Versions: 1 2 3 4 5 6 7 8 9 10 11 12 13 14

000
FTUS43 KMPX 291120
TAFEAU
TAF
KEAU 291120Z 2912/3012 VRB02KT P6SM SCT012 OVC020
     FM291700 05006KT P6SM SCT025 BKN035
     FM300200 VRB03KT P6SM SCT250=

USA.gov is the U.S. government's official web portal to all federal, state and local government web resources and services.